Time;durP1;ratioP1;P1;durP2;ratioP2;P2;SDS_P1;SDS_P2;PMS_P1;PMS_P2;Temp;Humidity;BMP_temperature;BMP_pressure;BME280_temperature;BME280_humidity;BME280_pressure;Samples;Min_cycle;Max_cycle;Signal;HPM_P1;HPM_P2
2021/12/27 00:00:34;;;;;;;0.93;0.93;;;3.00;99.90;;;;;;5079230;28;20032;-73
2021/12/27 00:03:01;;;;;;;0.88;0.40;;;3.20;99.90;;;;;;5073138;28;20024;-75
2021/12/27 00:05:28;;;;;;;0.85;0.63;;;3.20;99.90;;;;;;5089943;28;20020;-74
2021/12/27 00:07:54;;;;;;;1.10;0.60;;;3.20;99.90;;;;;;5090408;28;20020;-74
2021/12/27 00:10:22;;;;;;;1.42;1.33;;;3.20;99.90;;;;;;5091736;28;20023;-74
2021/12/27 00:12:48;;;;;;;0.40;0.40;;;3.40;99.90;;;;;;5095869;28;20021;-74
2021/12/27 00:15:14;;;;;;;1.17;0.70;;;3.50;99.90;;;;;;5078339;28;20021;-74
2021/12/27 00:17:42;;;;;;;1.23;1.08;;;3.60;99.90;;;;;;5092445;28;20443;-77
2021/12/27 00:20:11;;;;;;;0.73;0.50;;;3.50;99.90;;;;;;5090114;28;20116;-74
2021/12/27 00:22:38;;;;;;;0.88;0.80;;;3.50;99.90;;;;;;5074818;28;20028;-74
2021/12/27 00:25:05;;;;;;;1.05;0.98;;;3.40;99.90;;;;;;5093304;28;20024;-76
2021/12/27 00:27:31;;;;;;;1.55;1.33;;;3.40;99.90;;;;;;5072010;28;20081;-73
2021/12/27 00:29:56;;;;;;;1.52;1.13;;;3.40;99.90;;;;;;5071852;28;20017;-73
2021/12/27 00:32:22;;;;;;;1.95;1.25;;;3.40;99.90;;;;;;5071493;28;20273;-74
2021/12/27 00:34:48;;;;;;;1.65;1.05;;;3.50;99.90;;;;;;5071495;28;20220;-74
2021/12/27 00:37:13;;;;;;;0.45;0.45;;;3.50;99.90;;;;;;5071231;28;20557;-74
2021/12/27 00:39:39;;;;;;;0.63;0.63;;;3.50;99.90;;;;;;5071466;28;20582;-74
2021/12/27 00:42:05;;;;;;;1.02;0.43;;;3.50;99.90;;;;;;5071255;28;20027;-74
2021/12/27 00:44:31;;;;;;;0.70;0.65;;;3.50;99.90;;;;;;5089846;28;20469;-73
2021/12/27 00:46:57;;;;;;;1.25;0.90;;;3.50;99.90;;;;;;5074650;28;20085;-74
2021/12/27 00:49:23;;;;;;;1.13;1.08;;;3.50;99.90;;;;;;5074474;28;20476;-76
2021/12/27 00:51:49;;;;;;;0.60;0.60;;;1.50;99.90;;;;;;5074814;28;20024;-74
2021/12/27 00:54:15;;;;;;;1.20;1.05;;;3.50;99.90;;;;;;5092523;28;20023;-77
2021/12/27 00:56:42;;;;;;;2.55;0.80;;;3.50;99.90;;;;;;5092579;28;20039;-73
2021/12/27 00:59:07;;;;;;;1.50;1.13;;;3.60;99.90;;;;;;5074200;28;20323;-73
2021/12/27 01:01:33;;;;;;;0.73;0.73;;;3.70;99.90;;;;;;5092684;28;20039;-74
2021/12/27 01:03:59;;;;;;;0.70;0.70;;;3.70;99.90;;;;;;5092560;28;20038;-72
2021/12/27 01:06:26;;;;;;;3.05;1.23;;;3.70;99.90;;;;;;5074305;28;20047;-76
2021/12/27 01:08:52;;;;;;;4.07;1.55;;;3.70;99.90;;;;;;5074054;28;20484;-74
2021/12/27 01:11:35;;;;;;;1.20;1.10;;;3.80;99.90;;;;;;5074257;28;20462;-74
2021/12/27 01:14:16;;;;;;;1.42;1.00;;;3.90;99.90;;;;;;5092240;28;20429;-75
2021/12/27 01:16:44;;;;;;;2.47;1.30;;;3.90;99.90;;;;;;5073817;28;20123;-73
2021/12/27 01:19:10;;;;;;;1.38;1.23;;;4.00;99.90;;;;;;5074174;28;20571;-73
2021/12/27 01:21:35;;;;;;;2.78;1.10;;;4.00;99.90;;;;;;5073867;28;20275;-73
2021/12/27 01:24:03;;;;;;;1.50;1.17;;;3.90;99.90;;;;;;5092190;28;20032;-74
2021/12/27 01:26:28;;;;;;;1.17;1.08;;;3.90;99.90;;;;;;5091998;28;20106;-74
2021/12/27 01:28:56;;;;;;;1.15;0.77;;;3.90;99.90;;;;;;5091753;28;20107;-76
2021/12/27 01:31:23;;;;;;;7.55;3.65;;;3.90;99.90;;;;;;5091992;28;20048;-73
2021/12/27 01:33:49;;;;;;;1.73;1.25;;;3.90;99.90;;;;;;5091798;28;20384;-74
2021/12/27 01:36:15;;;;;;;3.67;1.10;;;3.80;99.90;;;;;;5092115;28;20039;-74
2021/12/27 01:38:42;;;;;;;3.50;1.83;;;3.90;99.90;;;;;;5091966;28;20211;-75
2021/12/27 01:41:11;;;;;;;3.88;1.85;;;4.00;99.90;;;;;;5092145;28;20384;-73
2021/12/27 01:43:38;;;;;;;2.33;0.75;;;3.90;99.90;;;;;;5092533;28;20385;-74
2021/12/27 01:46:17;;;;;;;3.85;1.40;;;3.90;99.90;;;;;;5073391;28;20387;-73
2021/12/27 01:48:48;;;;;;;2.28;1.30;;;4.00;99.90;;;;;;5091646;28;20017;-73
2021/12/27 01:51:16;;;;;;;2.17;1.42;;;4.00;99.90;;;;;;5091323;28;20442;-74
2021/12/27 01:53:44;;;;;;;8.93;1.55;;;4.10;99.90;;;;;;5073125;28;20024;-74
2021/12/27 01:56:12;;;;;;;2.92;1.13;;;4.10;99.90;;;;;;5091019;28;20031;-74
2021/12/27 01:58:38;;;;;;;1.10;0.70;;;4.10;99.90;;;;;;5091186;28;20032;-75
2021/12/27 02:01:06;;;;;;;2.08;0.88;;;4.20;99.90;;;;;;5072701;28;20375;-73
2021/12/27 02:03:33;;;;;;;2.65;1.23;;;4.20;99.90;;;;;;5072935;28;20028;-74
2021/12/27 02:05:58;;;;;;;3.85;1.48;;;4.20;99.90;;;;;;5090962;28;20048;-73
2021/12/27 02:08:24;;;;;;;1.65;1.35;;;4.20;99.90;;;;;;5072567;28;20480;-78
2021/12/27 02:10:50;;;;;;;2.75;0.98;;;4.20;99.90;;;;;;5073034;28;20034;-74
2021/12/27 02:13:17;;;;;;;1.77;0.85;;;4.20;99.90;;;;;;5072910;28;20020;-74
2021/12/27 02:15:43;;;;;;;3.13;1.60;;;4.20;99.90;;;;;;5091088;28;20484;-74
2021/12/27 02:18:09;;;;;;;4.18;1.92;;;4.30;99.90;;;;;;5090893;28;20627;-73
2021/12/27 02:20:38;;;;;;;1.65;0.98;;;4.30;99.90;;;;;;5090890;28;20183;-77
2021/12/27 02:23:11;;;;;;;1.35;0.93;;;4.40;99.90;;;;;;5090753;28;20125;-73
2021/12/27 02:25:38;;;;;;;2.03;1.85;;;4.40;99.90;;;;;;5072670;28;20024;-74
2021/12/27 02:28:06;;;;;;;2.08;0.90;;;4.40;99.90;;;;;;5072433;28;20060;-73
2021/12/27 02:30:33;;;;;;;1.60;1.10;;;4.30;99.90;;;;;;5090658;28;20024;-74
2021/12/27 02:33:04;;;;;;;0.75;0.75;;;4.20;99.90;;;;;;5090672;28;20040;-73
2021/12/27 02:35:40;;;;;;;1.33;1.23;;;4.00;99.90;;;;;;5072974;28;20074;-73
2021/12/27 02:38:09;;;;;;;0.70;0.50;;;5.10;99.90;;;;;;5072536;28;20052;-73
2021/12/27 02:40:37;;;;;;;1.17;0.90;;;3.90;99.90;;;;;;5072448;28;20020;-75
2021/12/27 02:43:14;;;;;;;3.95;1.05;;;3.80;99.90;;;;;;5072374;28;20028;-74
2021/12/27 02:45:43;;;;;;;0.70;0.70;;;3.70;99.90;;;;;;5072209;28;20024;-78
2021/12/27 02:48:09;;;;;;;0.93;0.70;;;3.60;99.90;;;;;;5090337;28;20075;-73
2021/12/27 02:50:35;;;;;;;1.08;0.95;;;3.60;99.90;;;;;;5072551;28;20165;-73
2021/12/27 02:53:02;;;;;;;0.57;0.57;;;3.60;99.90;;;;;;5090393;28;20074;-73
2021/12/27 02:55:29;;;;;;;1.35;1.02;;;3.50;99.90;;;;;;5071931;28;20024;-74
2021/12/27 02:57:55;;;;;;;2.47;1.73;;;3.50;99.90;;;;;;5090729;28;20040;-75
2021/12/27 03:00:28;;;;;;;4.72;1.17;;;3.50;99.90;;;;;;5074169;28;20119;-75
2021/12/27 03:02:55;;;;;;;17.15;1.95;;;3.50;99.90;;;;;;5091811;28;20039;-74
2021/12/27 03:05:23;;;;;;;1.67;1.27;;;3.50;99.90;;;;;;5092754;28;20020;-75
2021/12/27 03:07:51;;;;;;;1.90;0.90;;;3.40;99.90;;;;;;5092308;28;20031;-73
2021/12/27 03:10:20;;;;;;;2.75;0.93;;;3.30;99.90;;;;;;5090774;28;20024;-73
2021/12/27 03:12:47;;;;;;;1.98;1.00;;;3.20;99.90;;;;;;5091002;28;20261;-74
2021/12/27 03:15:15;;;;;;;4.78;0.55;;;3.00;99.90;;;;;;5091882;28;20039;-73
2021/12/27 03:17:43;;;;;;;1.15;0.77;;;3.00;99.90;;;;;;5073108;28;20032;-76
2021/12/27 03:20:10;;;;;;;23.67;1.08;;;2.90;99.90;;;;;;5073925;28;20020;-74
2021/12/27 03:22:37;;;;;;;2.17;0.40;;;2.80;99.90;;;;;;5091524;28;20050;-72
2021/12/27 03:25:05;;;;;;;0.75;0.50;;;2.80;99.90;;;;;;5091630;28;20102;-74
2021/12/27 03:27:31;;;;;;;0.28;0.28;;;2.90;99.90;;;;;;5092149;28;20020;-73
2021/12/27 03:29:57;;;;;;;0.90;0.90;;;2.80;99.90;;;;;;5092501;28;20077;-73
2021/12/27 03:32:23;;;;;;;2.72;0.40;;;2.80;99.90;;;;;;5092370;28;20108;-81
2021/12/27 03:35:03;;;;;;;0.47;0.40;;;2.70;99.90;;;;;;5073176;28;20040;-80
2021/12/27 03:37:29;;;;;;;0.40;0.40;;;2.80;99.90;;;;;;5072038;28;20051;-82
2021/12/27 03:39:55;;;;;;;0.50;0.50;;;2.80;99.90;;;;;;5091155;28;20460;-78
2021/12/27 03:42:21;;;;;;;0.52;0.52;;;2.50;99.90;;;;;;5071762;28;20038;-82
2021/12/27 03:44:46;;;;;;;0.40;0.40;;;2.40;99.90;;;;;;5071891;28;20420;-85
2021/12/27 03:47:12;;;;;;;0.40;0.40;;;2.40;99.90;;;;;;5072300;28;20020;-79
2021/12/27 03:49:40;;;;;;;1.42;0.50;;;2.30;99.90;;;;;;5089970;28;20038;-75
2021/12/27 03:52:06;;;;;;;26.00;1.85;;;2.30;99.90;;;;;;5072578;28;20059;-77
2021/12/27 03:54:32;;;;;;;0.43;0.43;;;2.30;99.90;;;;;;5090484;28;20432;-80
2021/12/27 03:56:58;;;;;;;0.22;0.20;;;2.20;99.90;;;;;;5073012;28;20021;-75
2021/12/27 03:59:37;;;;;;;1.63;0.40;;;2.00;99.90;;;;;;5091447;28;20112;-76
2021/12/27 04:02:04;;;;;;;0.20;0.20;;;1.90;99.90;;;;;;5091566;28;20027;-74
2021/12/27 04:04:30;;;;;;;0.22;0.22;;;1.80;99.90;;;;;;5072611;28;20102;-74
2021/12/27 04:06:56;;;;;;;1.92;0.32;;;1.90;99.90;;;;;;5089466;28;20020;-75
2021/12/27 04:09:22;;;;;;;1.38;1.30;;;1.90;99.90;;;;;;5089629;28;20024;-78
2021/12/27 04:11:47;;;;;;;0.63;0.40;;;1.90;99.90;;;;;;5071216;28;20480;-73
2021/12/27 04:14:13;;;;;;;0.20;0.20;;;2.00;99.90;;;;;;5071409;28;20016;-73
2021/12/27 04:16:39;;;;;;;0.80;0.47;;;1.90;99.90;;;;;;5089536;28;20073;-73
2021/12/27 04:19:05;;;;;;;0.20;0.20;;;1.90;99.90;;;;;;5071157;28;20134;-73
2021/12/27 04:21:30;;;;;;;22.23;0.40;;;1.90;99.90;;;;;;5074704;28;20073;-73
2021/12/27 04:23:56;;;;;;;0.10;0.10;;;1.80;99.90;;;;;;5092887;28;20485;-73
2021/12/27 04:26:22;;;;;;;0.57;0.25;;;1.60;99.90;;;;;;5092719;28;20476;-73
2021/12/27 04:28:49;;;;;;;0.32;0.30;;;1.60;99.90;;;;;;5074619;28;20535;-73
2021/12/27 04:31:15;;;;;;;0.63;0.63;;;1.60;99.90;;;;;;5074717;28;20063;-77
2021/12/27 04:33:41;;;;;;;1.38;1.08;;;1.60;99.90;;;;;;5092890;28;20433;-73
2021/12/27 04:36:07;;;;;;;20.33;0.80;;;1.70;99.90;;;;;;5092802;28;20361;-74
2021/12/27 04:38:34;;;;;;;0.10;0.10;;;1.70;99.90;;;;;;5092531;28;20043;-74
2021/12/27 04:41:01;;;;;;;0.70;0.70;;;1.70;99.90;;;;;;5092733;28;20020;-73
2021/12/27 04:43:29;;;;;;;0.20;0.20;;;1.70;99.90;;;;;;5074253;28;20042;-73
2021/12/27 04:45:55;;;;;;;0.10;0.10;;;1.60;99.90;;;;;;5074325;28;20022;-73
2021/12/27 04:48:23;;;;;;;0.20;0.20;;;1.50;99.90;;;;;;5093022;28;20036;-74
2021/12/27 04:50:49;;;;;;;0.32;0.32;;;1.30;99.90;;;;;;5086605;28;20562;-76
2021/12/27 04:53:15;;;;;;;1.42;0.57;;;1.30;99.90;;;;;;5083657;28;20049;-75
2021/12/27 04:55:41;;;;;;;0.68;0.20;;;1.30;99.90;;;;;;5112405;28;20020;-75
2021/12/27 04:58:09;;;;;;;23.00;0.70;;;1.50;99.90;;;;;;5097256;28;20040;-76
2021/12/27 05:00:37;;;;;;;0.13;0.13;;;1.40;99.90;;;;;;5091103;28;20020;-75
2021/12/27 05:03:02;;;;;;;0.45;0.45;;;1.30;99.90;;;;;;5089324;28;20067;-74
2021/12/27 05:05:30;;;;;;;0.73;0.52;;;1.30;99.90;;;;;;5071479;28;20357;-75
2021/12/27 05:07:57;;;;;;;0.38;0.38;;;1.20;99.90;;;;;;5071112;28;20056;-74
2021/12/27 05:10:24;;;;;;;1.25;0.35;;;1.30;99.90;;;;;;5087152;28;20027;-75
2021/12/27 05:12:50;;;;;;;0.45;0.45;;;1.10;99.90;;;;;;5091672;28;20079;-75
2021/12/27 05:15:16;;;;;;;0.35;0.35;;;1.20;99.90;;;;;;5110810;28;20062;-76
2021/12/27 05:17:42;;;;;;;0.10;0.10;;;1.10;99.90;;;;;;5091705;28;20122;-75
2021/12/27 05:20:09;;;;;;;0.52;0.52;;;1.00;99.90;;;;;;5092143;28;20032;-75
2021/12/27 05:22:35;;;;;;;0.70;0.68;;;1.00;99.90;;;;;;5109478;28;20031;-75
2021/12/27 05:25:01;;;;;;;1.00;1.00;;;0.90;99.90;;;;;;5109743;28;20023;-75
2021/12/27 05:27:27;;;;;;;0.32;0.32;;;0.90;99.90;;;;;;5091009;28;20046;-76
2021/12/27 05:29:52;;;;;;;0.20;0.20;;;1.00;99.90;;;;;;5110449;28;20023;-75
2021/12/27 05:32:18;;;;;;;0.63;0.63;;;1.00;99.90;;;;;;5101129;28;20028;-75
2021/12/27 05:34:44;;;;;;;0.32;0.32;;;0.80;99.90;;;;;;5081947;28;20104;-75
2021/12/27 05:37:10;;;;;;;0.30;0.30;;;0.70;99.90;;;;;;5092613;28;20044;-74
2021/12/27 05:39:36;;;;;;;0.45;0.45;;;0.70;99.90;;;;;;5111141;28;20027;-75
2021/12/27 05:42:02;;;;;;;0.57;0.57;;;0.80;99.90;;;;;;5111352;28;20149;-75
2021/12/27 05:44:28;;;;;;;0.57;0.57;;;0.70;99.90;;;;;;5093162;28;20020;-76
2021/12/27 05:46:54;;;;;;;0.35;0.35;;;0.80;99.90;;;;;;5091251;28;20049;-74
2021/12/27 05:49:21;;;;;;;0.40;0.40;;;0.80;99.90;;;;;;5091007;28;20027;-74
2021/12/27 05:51:47;;;;;;;22.13;1.02;;;0.80;99.90;;;;;;5085116;28;20398;-76
2021/12/27 05:54:13;;;;;;;0.43;0.32;;;0.80;99.90;;;;;;5070830;28;20032;-77
2021/12/27 05:56:40;;;;;;;0.45;0.45;;;0.70;99.90;;;;;;5088877;28;20020;-74
2021/12/27 05:59:06;;;;;;;6.20;1.23;;;0.70;99.90;;;;;;5071131;28;20040;-74
2021/12/27 06:01:32;;;;;;;0.60;0.60;;;1.00;99.90;;;;;;5070733;28;20028;-75
2021/12/27 06:03:59;;;;;;;1.75;0.85;;;1.00;99.90;;;;;;5070720;28;20027;-74
2021/12/27 06:06:26;;;;;;;1.25;0.95;;;1.10;99.90;;;;;;5099664;28;20062;-75
2021/12/27 06:08:52;;;;;;;0.50;0.50;;;1.00;99.90;;;;;;5081912;28;20043;-74
2021/12/27 06:11:19;;;;;;;0.50;0.50;;;0.90;99.90;;;;;;5070337;28;20031;-75
2021/12/27 06:13:45;;;;;;;0.40;0.40;;;0.80;99.90;;;;;;5081987;28;20576;-74
2021/12/27 06:16:11;;;;;;;0.65;0.65;;;0.70;99.90;;;;;;5089059;28;20059;-76
2021/12/27 06:18:37;;;;;;;0.80;0.50;;;0.60;99.90;;;;;;5108416;28;20114;-75
2021/12/27 06:21:04;;;;;;;0.57;0.57;;;0.70;99.90;;;;;;5091464;28;20035;-75
2021/12/27 06:23:33;;;;;;;2.75;1.52;;;0.80;99.90;;;;;;5090467;28;20035;-74
2021/12/27 06:25:59;;;;;;;0.77;0.77;;;0.90;99.90;;;;;;5078446;28;20118;-76
2021/12/27 06:28:27;;;;;;;0.52;0.43;;;0.90;99.90;;;;;;5089358;28;20039;-78
2021/12/27 06:30:53;;;;;;;1.30;0.90;;;0.90;99.90;;;;;;5071925;28;20031;-74
2021/12/27 06:33:19;;;;;;;1.10;1.00;;;0.70;99.90;;;;;;5088091;28;20064;-74
2021/12/27 06:35:45;;;;;;;1.50;1.40;;;0.60;99.90;;;;;;5070012;28;20165;-75
2021/12/27 06:38:10;;;;;;;0.95;0.95;;;0.60;99.90;;;;;;5069632;28;20515;-76
2021/12/27 06:40:36;;;;;;;0.50;0.50;;;0.70;99.90;;;;;;5069889;28;20480;-74
2021/12/27 06:43:02;;;;;;;2.90;1.58;;;0.70;99.90;;;;;;5087477;28;20420;-73
2021/12/27 06:45:28;;;;;;;1.30;1.27;;;0.70;99.90;;;;;;5088393;28;20074;-76
2021/12/27 06:47:54;;;;;;;1.13;0.98;;;0.70;99.90;;;;;;5088302;28;20039;-76
2021/12/27 06:50:20;;;;;;;0.63;0.63;;;0.70;99.90;;;;;;5088266;28;20024;-74
2021/12/27 06:52:45;;;;;;;0.70;0.70;;;0.60;99.90;;;;;;5069382;28;20031;-75
2021/12/27 06:55:12;;;;;;;0.88;0.70;;;0.60;99.90;;;;;;5069607;28;20412;-74
2021/12/27 06:57:38;;;;;;;0.57;0.57;;;0.50;99.90;;;;;;5087683;28;20085;-75
2021/12/27 07:00:06;;;;;;;1.98;1.30;;;0.50;99.90;;;;;;5088008;28;20028;-75
2021/12/27 07:02:32;;;;;;;1.43;1.03;;;0.60;99.90;;;;;;5082825;28;20361;-77
2021/12/27 07:04:58;;;;;;;1.98;1.27;;;0.60;99.90;;;;;;5090045;28;20080;-75
2021/12/27 07:07:24;;;;;;;0.75;0.75;;;0.80;99.90;;;;;;5107795;28;20450;-75
2021/12/27 07:09:50;;;;;;;2.30;1.33;;;0.70;99.90;;;;;;5090162;28;20034;-76
2021/12/27 07:12:15;;;;;;;1.10;1.10;;;0.70;99.90;;;;;;5089529;28;20063;-78
2021/12/27 07:14:41;;;;;;;1.10;1.00;;;0.60;99.90;;;;;;5089481;28;20114;-76
2021/12/27 07:17:07;;;;;;;0.85;0.85;;;0.50;99.90;;;;;;5090460;28;20045;-77
2021/12/27 07:19:33;;;;;;;1.98;1.75;;;0.50;99.90;;;;;;5089481;28;20031;-74
2021/12/27 07:21:59;;;;;;;1.67;1.58;;;0.40;99.90;;;;;;5090098;28;20088;-74
2021/12/27 07:24:25;;;;;;;17.95;1.25;;;0.50;99.90;;;;;;5109334;28;20108;-74
2021/12/27 07:26:52;;;;;;;1.48;1.38;;;0.60;99.90;;;;;;5090092;28;20476;-74
2021/12/27 07:29:18;;;;;;;1.50;0.88;;;0.50;99.90;;;;;;5107694;28;20410;-72
2021/12/27 07:31:44;;;;;;;4.80;1.48;;;0.60;99.90;;;;;;5108328;28;20020;-74
2021/12/27 07:34:10;;;;;;;2.28;1.58;;;0.60;99.90;;;;;;5089613;28;20028;-74
2021/12/27 07:36:36;;;;;;;0.93;0.82;;;0.70;99.90;;;;;;5107291;28;20043;-79
2021/12/27 07:39:02;;;;;;;1.42;1.15;;;0.60;99.90;;;;;;5108844;28;20110;-75
2021/12/27 07:41:28;;;;;;;2.95;1.23;;;0.60;99.90;;;;;;5089758;28;20035;-76
2021/12/27 07:43:55;;;;;;;1.58;1.35;;;0.60;99.90;;;;;;5107394;28;20429;-76
2021/12/27 07:46:21;;;;;;;1.83;1.73;;;0.70;99.90;;;;;;5089769;28;20507;-74
2021/12/27 07:48:47;;;;;;;1.30;1.10;;;0.80;99.90;;;;;;5088514;28;20053;-75
2021/12/27 07:51:12;;;;;;;2.58;1.23;;;0.90;99.90;;;;;;5104185;28;20102;-74
2021/12/27 07:53:38;;;;;;;2.05;1.90;;;1.00;99.90;;;;;;5089180;28;20069;-76
2021/12/27 07:56:06;;;;;;;1.02;0.90;;;1.80;99.90;;;;;;5111227;28;20091;-75
2021/12/27 07:58:32;;;;;;;2.30;1.50;;;1.20;99.90;;;;;;5093510;28;20049;-77
2021/12/27 08:00:57;;;;;;;0.80;0.75;;;1.30;99.90;;;;;;5109666;28;20059;-74
2021/12/27 08:03:23;;;;;;;2.35;2.00;;;1.30;99.90;;;;;;5092823;28;20397;-83
2021/12/27 08:05:49;;;;;;;6.10;1.42;;;1.30;99.90;;;;;;5093631;28;20024;-81
2021/12/27 08:08:15;;;;;;;2.47;1.33;;;1.20;99.90;;;;;;5111520;28;20028;-79
2021/12/27 08:10:42;;;;;;;2.13;1.55;;;1.30;99.90;;;;;;5111470;28;20571;-75
2021/12/27 08:13:07;;;;;;;3.03;1.63;;;1.40;99.90;;;;;;5092158;27;20062;-74
2021/12/27 08:15:33;;;;;;;3.30;1.33;;;1.60;99.90;;;;;;5090924;28;20031;-76
2021/12/27 08:17:59;;;;;;;1.45;1.35;;;1.80;99.90;;;;;;5091607;28;20024;-73
2021/12/27 08:20:25;;;;;;;9.75;2.83;;;1.90;99.90;;;;;;5090952;28;20031;-76
2021/12/27 08:22:50;;;;;;;3.90;2.03;;;2.10;99.90;;;;;;5089961;28;20476;-75
2021/12/27 08:25:16;;;;;;;3.28;1.35;;;2.20;99.90;;;;;;5090615;28;20024;-75
2021/12/27 08:27:43;;;;;;;3.05;1.67;;;2.30;99.90;;;;;;5091272;28;20078;-74
2021/12/27 08:30:11;;;;;;;57.35;25.33;;;2.30;99.90;;;;;;5071993;28;20016;-75
2021/12/27 08:32:39;;;;;;;6.18;4.28;;;2.40;99.90;;;;;;5074459;28;20028;-75
2021/12/27 08:35:06;;;;;;;2.50;1.45;;;2.40;99.90;;;;;;5093155;28;20095;-76
2021/12/27 08:37:32;;;;;;;5.90;2.05;;;2.50;99.90;;;;;;5092654;28;20476;-74
2021/12/27 08:39:59;;;;;;;2.45;1.30;;;2.60;99.90;;;;;;5093792;28;20511;-77
2021/12/27 08:42:25;;;;;;;1.20;1.10;;;2.50;99.90;;;;;;5094156;28;20016;-74
2021/12/27 08:44:52;;;;;;;2.55;1.38;;;2.60;99.90;;;;;;5094036;28;20391;-74
2021/12/27 08:47:18;;;;;;;1.65;1.30;;;2.70;99.90;;;;;;5093456;28;20081;-73
2021/12/27 08:49:45;;;;;;;1.33;1.23;;;2.70;99.90;;;;;;5092013;28;20405;-75
2021/12/27 08:52:10;;;;;;;2.55;1.73;;;2.50;99.90;;;;;;5093527;28;20028;-74
2021/12/27 08:54:36;;;;;;;3.58;2.42;;;2.80;99.90;;;;;;5093947;28;20066;-74
2021/12/27 08:57:04;;;;;;;2.55;1.88;;;2.90;99.90;;;;;;5094361;28;20393;-75
2021/12/27 08:59:30;;;;;;;1.80;1.52;;;4.10;99.90;;;;;;5094069;28;20020;-74
2021/12/27 09:01:56;;;;;;;2.33;1.70;;;3.10;99.90;;;;;;5099549;28;20715;-74
2021/12/27 09:04:23;;;;;;;2.90;2.22;;;3.20;99.90;;;;;;5111548;28;20035;-77
2021/12/27 09:06:49;;;;;;;2.28;1.67;;;3.30;99.90;;;;;;5097867;28;20035;-82
2021/12/27 09:09:15;;;;;;;1.75;1.42;;;3.40;99.90;;;;;;5091213;28;20051;-80
2021/12/27 09:11:42;;;;;;;2.13;2.03;;;3.50;99.90;;;;;;5090426;28;20108;-76
2021/12/27 09:14:08;;;;;;;5.10;2.60;;;3.70;99.90;;;;;;5071666;28;20031;-75
2021/12/27 09:16:33;;;;;;;3.92;2.20;;;3.70;99.90;;;;;;5089738;28;20028;-75
2021/12/27 09:18:59;;;;;;;1.85;1.60;;;5.60;99.90;;;;;;5088949;28;20040;-75
2021/12/27 09:21:24;;;;;;;2.35;1.55;;;4.10;99.90;;;;;;5071951;28;20388;-76
2021/12/27 09:23:51;;;;;;;4.43;2.13;;;4.40;99.90;;;;;;5090354;28;20232;-73
2021/12/27 09:26:16;;;;;;;2.55;1.73;;;4.60;99.90;;;;;;5095535;28;20070;-74
2021/12/27 09:28:42;;;;;;;1.77;1.65;;;4.70;99.90;;;;;;5098529;28;20024;-75
2021/12/27 09:31:08;;;;;;;2.05;1.85;;;4.80;99.90;;;;;;5092053;28;20099;-74
2021/12/27 09:33:34;;;;;;;2.60;2.00;;;4.80;99.90;;;;;;5072367;28;20127;-74
2021/12/27 09:36:00;;;;;;;3.22;2.65;;;4.90;99.90;;;;;;5089564;28;20292;-73
2021/12/27 09:38:26;;;;;;;1.55;1.45;;;4.90;99.90;;;;;;5070558;28;20111;-75
2021/12/27 09:40:51;;;;;;;5.72;2.45;;;5.00;99.90;;;;;;5071366;28;20694;-74
2021/12/27 09:43:17;;;;;;;4.53;2.78;;;5.10;99.90;;;;;;5053533;28;20031;-74
2021/12/27 09:45:43;;;;;;;5.22;3.13;;;5.10;99.90;;;;;;5071000;28;20039;-73
2021/12/27 09:48:09;;;;;;;3.08;2.78;;;5.20;99.90;;;;;;5089957;28;20319;-74
2021/12/27 09:50:42;;;;;;;4.10;2.10;;;5.20;99.90;;;;;;5089065;28;20078;-74
2021/12/27 09:53:08;;;;;;;1.92;1.75;;;5.20;99.90;;;;;;5088684;28;20024;-73
2021/12/27 09:55:35;;;;;;;2.10;1.67;;;5.30;99.90;;;;;;5070588;28;20020;-78
2021/12/27 09:58:01;;;;;;;2.45;1.92;;;5.50;99.90;;;;;;5071072;28;20032;-84
2021/12/27 10:00:28;;;;;;;19.60;8.35;;;5.60;99.90;;;;;;5070784;28;20035;-79
2021/12/27 10:02:57;;;;;;;14.45;6.13;;;5.40;99.90;;;;;;5081990;28;20027;-74
2021/12/27 10:05:26;;;;;;;5.28;3.10;;;5.40;99.90;;;;;;5069827;28;20427;-74
2021/12/27 10:07:52;;;;;;;11.93;4.90;;;5.40;99.90;;;;;;5069892;28;20481;-74
2021/12/27 10:10:18;;;;;;;4.65;3.05;;;5.50;99.90;;;;;;5071340;28;20032;-81
2021/12/27 10:12:45;;;;;;;7.30;3.50;;;5.60;99.90;;;;;;5069739;28;20020;-73
2021/12/27 10:15:21;;;;;;;7.40;3.33;;;5.80;99.90;;;;;;5070297;28;20028;-74
2021/12/27 10:17:47;;;;;;;7.85;3.17;;;5.80;99.90;;;;;;5089078;28;20373;-76
2021/12/27 10:20:22;;;;;;;10.75;3.42;;;5.90;99.90;;;;;;5070070;28;20390;-74
2021/12/27 10:22:55;;;;;;;2.85;2.05;;;5.90;99.90;;;;;;5068941;28;20051;-75
2021/12/27 10:25:23;;;;;;;2.97;2.35;;;5.80;99.90;;;;;;5070028;28;20481;-74
2021/12/27 10:27:53;;;;;;;2.43;1.80;;;5.90;99.90;;;;;;5069385;28;20063;-74
2021/12/27 10:30:26;;;;;;;2.92;2.25;;;5.90;99.90;;;;;;5087693;28;20039;-74
2021/12/27 10:33:06;;;;;;;3.40;2.17;;;6.10;99.90;;;;;;5069697;28;20391;-75
2021/12/27 10:35:53;;;;;;;4.13;2.47;;;6.20;99.90;;;;;;5069602;28;20031;-75
2021/12/27 10:38:36;;;;;;;3.13;2.35;;;6.30;99.90;;;;;;5069588;28;20056;-73
2021/12/27 10:41:07;;;;;;;2.92;1.45;;;6.40;99.90;;;;;;5087806;28;20051;-74
2021/12/27 10:43:33;;;;;;;2.00;1.58;;;6.40;99.90;;;;;;5069696;28;20072;-74
2021/12/27 10:46:01;;;;;;;3.17;1.90;;;6.30;99.90;;;;;;5070369;28;20028;-74
2021/12/27 10:48:54;;;;;;;3.00;2.53;;;6.30;99.90;;;;;;5069435;28;20055;-74
2021/12/27 10:51:20;;;;;;;3.15;2.70;;;6.30;99.90;;;;;;5069754;28;20024;-78
2021/12/27 10:53:58;;;;;;;4.65;2.58;;;6.40;99.90;;;;;;5068592;28;20425;-74
2021/12/27 10:56:26;;;;;;;3.88;2.50;;;6.20;99.90;;;;;;5069130;28;20020;-73
2021/12/27 10:58:57;;;;;;;3.03;1.90;;;6.30;99.90;;;;;;5087269;28;20532;-74
2021/12/27 11:01:26;;;;;;;4.05;1.67;;;6.30;99.90;;;;;;5090245;28;20012;-74
2021/12/27 11:03:59;;;;;;;3.17;2.00;;;6.30;99.90;;;;;;5107672;28;20032;-78
2021/12/27 11:06:28;;;;;;;2.42;1.88;;;6.20;99.90;;;;;;5089118;28;20261;-73
2021/12/27 11:08:55;;;;;;;;;;;6.30;99.90;;;;;;5108188;28;20394;-80
2021/12/27 11:11:23;;;;;;;1.88;1.77;;;6.40;99.90;;;;;;5089482;28;19907;-75
2021/12/27 11:13:52;;;;;;;2.72;2.25;;;6.40;99.90;;;;;;5107879;28;20043;-76
2021/12/27 11:16:18;;;;;;;2.75;1.63;;;6.50;99.90;;;;;;5089190;28;20098;-86
2021/12/27 11:18:45;;;;;;;6.70;3.38;;;6.60;99.90;;;;;;5089495;28;20096;-82
2021/12/27 11:21:22;;;;;;;3.40;2.28;;;6.50;99.90;;;;;;5086393;28;20526;-82
2021/12/27 11:23:52;;;;;;;4.82;2.63;;;6.50;99.90;;;;;;5085719;28;20583;-76
2021/12/27 11:26:26;;;;;;;3.22;2.15;;;6.60;99.90;;;;;;5104257;28;20500;-74
2021/12/27 11:28:52;;;;;;;3.63;2.63;;;6.80;99.90;;;;;;5104144;28;20085;-78
2021/12/27 11:31:23;;;;;;;4.13;2.47;;;6.90;99.90;;;;;;5105121;28;20313;-77
2021/12/27 11:34:03;;;;;;;6.13;3.70;;;7.00;99.90;;;;;;5104797;28;20031;-86
2021/12/27 11:36:49;;;;;;;4.22;3.03;;;7.00;99.90;;;;;;5085976;28;20070;-82
2021/12/27 11:39:27;;;;;;;6.55;3.30;;;7.10;99.90;;;;;;5086807;28;20064;-82
2021/12/27 11:42:03;;;;;;;8.63;3.53;;;7.10;99.90;;;;;;5086814;28;20036;-76
2021/12/27 11:44:58;;;;;;;6.72;3.17;;;7.00;99.90;;;;;;5072428;28;20032;-74
2021/12/27 11:47:25;;;;;;;5.32;3.53;;;7.30;99.90;;;;;;5057265;28;20044;-83
2021/12/27 11:49:51;;;;;;;4.32;2.78;;;7.40;99.90;;;;;;5101962;28;20101;-74
2021/12/27 11:52:19;;;;;;;5.05;3.85;;;7.60;99.90;;;;;;5068300;28;20036;-76
2021/12/27 11:54:51;;;;;;;6.40;2.78;;;7.60;99.90;;;;;;5083374;28;20024;-74
2021/12/27 11:57:54;;;;;;;5.40;2.88;;;7.80;99.90;;;;;;5064417;28;20031;-74
2021/12/27 12:00:23;;;;;;;3.53;2.50;;;7.90;99.90;;;;;;5076483;28;20043;-76
2021/12/27 12:03:08;;;;;;;5.05;3.05;;;7.90;99.90;;;;;;5070119;28;20385;-74
2021/12/27 12:05:38;;;;;;;3.72;2.55;;;8.00;99.90;;;;;;5084203;28;20040;-74
2021/12/27 12:08:05;;;;;;;3.92;2.58;;;7.10;99.90;;;;;;5065209;28;20020;-76
2021/12/27 12:10:32;;;;;;;4.40;2.38;;;8.00;99.90;;;;;;5066432;28;20032;-76
2021/12/27 12:13:21;;;;;;;2.97;2.30;;;8.00;99.90;;;;;;5068063;28;20020;-75
2021/12/27 12:16:07;;;;;;;;;;;8.20;99.90;;;;;;5089442;28;20034;-77
2021/12/27 12:18:33;;;;;;;5.53;3.15;;;8.30;99.90;;;;;;5083911;28;20365;-74
2021/12/27 12:21:00;;;;;;;8.00;2.75;;;8.20;99.90;;;;;;5089601;28;20444;-77
2021/12/27 12:23:26;;;;;;;3.40;2.35;;;8.30;99.90;;;;;;5090040;28;20039;-78
2021/12/27 12:26:00;;;;;;;7.50;2.58;;;8.30;99.90;;;;;;5068908;28;20031;-78
2021/12/27 12:28:27;;;;;;;5.18;2.85;;;8.30;99.90;;;;;;5068986;28;20028;-76
2021/12/27 12:30:53;;;;;;;3.65;2.40;;;8.30;99.90;;;;;;5084471;28;20081;-74
2021/12/27 12:33:25;;;;;;;6.70;3.90;;;8.30;99.90;;;;;;5087398;28;20027;-75
2021/12/27 12:35:59;;;;;;;4.93;3.33;;;8.30;99.90;;;;;;5068817;28;20489;-75
2021/12/27 12:38:33;;;;;;;10.48;4.75;;;8.10;99.90;;;;;;5066410;28;20087;-76
2021/12/27 12:41:02;;;;;;;7.70;4.47;;;8.10;99.90;;;;;;5072421;28;20057;-73
2021/12/27 12:43:54;;;;;;;11.80;5.00;;;8.20;99.90;;;;;;5081388;28;20031;-73
2021/12/27 12:46:25;;;;;;;8.90;4.43;;;8.00;99.90;;;;;;5116736;28;20195;-74
2021/12/27 12:48:59;;;;;;;6.88;3.78;;;7.90;99.90;;;;;;5100548;28;20020;-75
2021/12/27 12:51:46;;;;;;;6.63;3.90;;;7.80;99.90;;;;;;5100946;28;20051;-74
2021/12/27 12:54:26;;;;;;;9.30;4.10;;;7.80;99.90;;;;;;5086406;28;20027;-77
2021/12/27 12:57:17;;;;;;;7.30;3.38;;;7.90;99.90;;;;;;5092112;28;20028;-73
2021/12/27 12:59:55;;;;;;;4.18;2.97;;;7.90;99.90;;;;;;5080232;28;20027;-74
2021/12/27 13:02:29;;;;;;;5.72;3.53;;;8.10;99.90;;;;;;5106289;28;20018;-73